Time;durP1;ratioP1;P1;durP2;ratioP2;P2;SDS_P1;SDS_P2;PMS_P1;PMS_P2;Temp;Humidity;BMP_temperature;BMP_pressure;BME280_temperature;BME280_humidity;BME280_pressure;Samples;Min_cycle;Max_cycle;Signal;HPM_P1;HPM_P2
2023/04/02 00:01:39;;;;;;;0.45;0.35;;;;;;;21.44;32.00;99892.41;4569311;27;21254;-58
2023/04/02 00:03:58;;;;;;;0.40;0.40;;;;;;;21.45;32.05;99897.78;4568769;27;20033;-58
2023/04/02 00:06:31;;;;;;;0.88;0.50;;;;;;;21.46;31.61;99908.03;4570670;27;20044;-59
2023/04/02 00:08:42;;;;;;;0.60;0.60;;;;;;;21.46;31.64;99908.03;4570800;27;20609;-57
2023/04/02 00:10:56;;;;;;;0.63;0.50;;;;;;;21.42;32.09;99907.16;4571443;27;20058;-58
2023/04/02 00:13:10;;;;;;;0.50;0.50;;;;;;;21.46;31.72;99919.53;4570730;27;20115;-58
2023/04/02 00:15:21;;;;;;;0.40;0.40;;;;;;;21.31;31.53;99894.69;4567405;27;20057;-58
2023/04/02 00:17:31;;;;;;;0.40;0.40;;;;;;;21.43;31.65;99910.88;4570085;27;20656;-58
2023/04/02 00:19:59;;;;;;;0.50;0.50;;;;;;;21.46;31.95;99924.44;4571707;27;20090;-58
2023/04/02 00:22:16;;;;;;;0.30;0.30;;;;;;;21.44;31.85;99929.72;4571040;27;20052;-59
2023/04/02 00:24:27;;;;;;;0.40;0.40;;;;;;;21.45;31.93;99934.28;4570369;27;20571;-58
2023/04/02 00:26:42;;;;;;;0.40;0.40;;;;;;;21.45;31.75;99942.88;4570092;27;20040;-59
2023/04/02 00:28:53;;;;;;;0.38;0.38;;;;;;;21.42;31.76;99947.34;4569981;27;20101;-61
2023/04/02 00:31:04;;;;;;;0.30;0.30;;;;;;;21.40;31.51;99948.97;4586428;27;20054;-57
2023/04/02 00:33:17;;;;;;;0.40;0.40;;;;;;;21.43;31.37;99949.03;4569294;27;20051;-57
2023/04/02 00:35:29;;;;;;;0.30;0.30;;;;;;;21.28;31.10;99934.88;4569441;27;20040;-58
2023/04/02 00:37:40;;;;;;;0.30;0.30;;;;;;;21.42;31.21;99958.84;4572013;27;20027;-58
2023/04/02 00:39:57;;;;;;;0.20;0.20;;;;;;;21.44;31.50;99967.06;4551191;27;20632;-58
2023/04/02 00:42:11;;;;;;;0.20;0.20;;;;;;;21.43;30.96;99976.91;4559012;27;20693;-58
2023/04/02 00:44:22;;;;;;;0.45;0.40;;;;;;;21.39;30.97;99968.22;4569395;27;21002;-60
2023/04/02 00:46:45;;;;;;;0.28;0.28;;;;;;;21.37;30.48;99972.72;4570245;27;20882;-58
2023/04/02 00:49:18;;;;;;;0.30;0.30;;;;;;;21.41;31.09;99985.91;4569303;27;20115;-58
2023/04/02 00:51:34;;;;;;;0.52;0.32;;;;;;;21.40;30.74;99992.88;4557459;27;20032;-58
2023/04/02 00:53:47;;;;;;;0.28;0.22;;;;;;;21.36;30.63;99989.09;4585461;27;20042;-58
2023/04/02 00:55:58;;;;;;;0.30;0.30;;;;;;;21.40;30.52;99995.75;4569986;27;20032;-58
2023/04/02 00:58:30;;;;;;;0.38;0.38;;;;;;;21.39;30.50;100005.53;4568498;27;20060;-58
2023/04/02 01:00:48;;;;;;;0.30;0.30;;;;;;;21.40;30.96;100003.50;4570079;27;20126;-58
2023/04/02 01:03:11;;;;;;;0.40;0.40;;;;;;;21.41;30.65;100010.91;4570088;27;20072;-58
2023/04/02 01:05:22;;;;;;;0.30;0.30;;;;;;;21.31;30.54;99992.31;4569188;27;20058;-58
2023/04/02 01:07:51;;;;;;;0.40;0.40;;;;;;;21.40;30.71;100018.72;4569803;27;20513;-58
2023/04/02 01:10:21;;;;;;;0.30;0.30;;;;;;;21.40;30.40;100017.88;4560150;27;20058;-59
2023/04/02 01:12:51;;;;;;;0.30;0.30;;;;;;;21.40;30.57;100020.75;4571709;27;20127;-58
2023/04/02 01:15:16;;;;;;;0.40;0.40;;;;;;;21.40;30.39;100029.34;4569424;27;20043;-58
2023/04/02 01:17:41;;;;;;;0.40;0.40;;;;;;;21.40;30.73;100024.44;4569915;27;20078;-57
2023/04/02 01:20:13;;;;;;;0.30;0.30;;;;;;;21.40;30.70;100035.09;4569391;27;20042;-57
2023/04/02 01:22:34;;;;;;;0.40;0.40;;;;;;;21.36;30.48;100034.22;4569500;27;20044;-58
2023/04/02 01:24:45;;;;;;;0.30;0.30;;;;;;;21.40;30.44;100047.41;4586233;27;20035;-58
2023/04/02 01:26:59;;;;;;;0.30;0.30;;;;;;;21.37;30.55;100041.63;4568796;27;21453;-58
2023/04/02 01:29:17;;;;;;;0.30;0.30;;;;;;;21.38;30.68;100052.72;4569924;27;20052;-59
2023/04/02 01:31:31;;;;;;;0.30;0.30;;;;;;;21.39;30.67;100059.28;4567019;27;20048;-58
2023/04/02 01:33:42;;;;;;;0.30;0.30;;;;;;;21.39;30.60;100068.72;4566762;27;20886;-58
2023/04/02 01:36:07;;;;;;;0.35;0.35;;;;;;;21.39;30.71;100067.91;4568932;27;20036;-58
2023/04/02 01:38:32;;;;;;;0.45;0.45;;;;;;;21.34;30.62;100066.19;4569347;27;20028;-58
2023/04/02 01:41:35;;;;;;;0.30;0.30;;;;;;;21.38;30.76;100075.69;4569029;27;20061;-58
2023/04/02 01:43:54;;;;;;;0.38;0.38;;;;;;;21.38;30.46;100086.31;4567188;27;20044;-58
2023/04/02 01:46:30;;;;;;;0.30;0.30;;;;;;;21.38;30.36;100084.28;4569083;27;20058;-58
2023/04/02 01:48:41;;;;;;;0.40;0.40;;;;;;;21.38;30.51;100092.91;4574924;27;20764;-58
2023/04/02 01:50:55;;;;;;;0.40;0.40;;;;;;;21.34;30.56;100094.91;4568724;27;20347;-58
2023/04/02 01:53:10;;;;;;;0.30;0.30;;;;;;;21.37;30.61;100101.91;4558212;28;20805;-58
2023/04/02 01:55:30;;;;;;;0.45;0.45;;;;;;;21.36;30.38;100106.00;4568413;27;20891;-59
2023/04/02 01:57:47;;;;;;;0.40;0.40;;;;;;;21.34;30.38;100106.38;4574423;27;20036;-58
2023/04/02 02:00:00;;;;;;;0.50;0.50;;;;;;;21.29;30.45;100103.81;4572142;27;20040;-58
2023/04/02 02:02:12;;;;;;;0.47;0.47;;;;;;;21.36;31.06;100121.16;4573904;27;20036;-58
2023/04/02 02:04:24;;;;;;;0.40;0.40;;;;;;;21.33;30.56;100116.19;4588054;27;20042;-58
2023/04/02 02:06:35;;;;;;;0.50;0.50;;;;;;;21.35;30.26;100121.53;4571766;27;20352;-58
2023/04/02 02:08:54;;;;;;;0.50;0.50;;;;;;;21.31;30.38;100126.41;4573604;27;20102;-57
2023/04/02 02:11:10;;;;;;;0.40;0.40;;;;;;;21.34;30.26;100135.09;4560216;27;20036;-58
2023/04/02 02:13:21;;;;;;;0.30;0.30;;;;;;;21.31;30.71;100130.09;4561571;27;20037;-57
2023/04/02 02:15:34;;;;;;;0.40;0.40;;;;;;;21.33;30.18;100142.03;4571628;27;20039;-58
2023/04/02 02:17:45;;;;;;;0.40;0.40;;;;;;;21.33;30.29;100135.44;4571540;27;20043;-58
2023/04/02 02:19:59;;;;;;;0.50;0.50;;;;;;;21.32;30.41;100142.41;4571773;27;20071;-58
2023/04/02 02:22:36;;;;;;;0.50;0.50;;;;;;;21.34;29.74;100146.56;4570689;27;20131;-58
2023/04/02 02:24:47;;;;;;;0.40;0.40;;;;;;;21.35;29.68;100153.13;4571547;27;20515;-58
2023/04/02 02:27:10;;;;;;;0.43;0.43;;;;;;;21.35;29.75;100159.69;4573117;27;20036;-58
2023/04/02 02:29:25;;;;;;;0.47;0.40;;;;;;;21.34;29.78;100166.66;4571539;27;20060;-58
2023/04/02 02:31:40;;;;;;;0.40;0.40;;;;;;;21.34;29.67;100168.69;4572831;27;20547;-58
2023/04/02 02:34:00;;;;;;;0.50;0.50;;;;;;;21.34;29.90;100183.91;4571079;27;20175;-58
2023/04/02 02:36:21;;;;;;;0.60;0.60;;;;;;;21.30;29.81;100176.41;4572396;27;20832;-57
2023/04/02 02:38:33;;;;;;;0.40;0.40;;;;;;;21.33;29.79;100190.81;4572332;27;20039;-58
2023/04/02 02:40:57;;;;;;;0.40;0.40;;;;;;;21.28;29.95;100188.25;4576917;27;20031;-58
2023/04/02 02:43:12;;;;;;;0.50;0.50;;;;;;;21.30;29.85;100197.34;4587365;27;20110;-58
2023/04/02 02:45:26;;;;;;;0.40;0.40;;;;;;;21.32;29.84;100200.66;4570670;27;20024;-57
2023/04/02 02:47:38;;;;;;;0.40;0.40;;;;;;;21.31;29.80;100204.72;4588076;27;20587;-58
2023/04/02 02:49:56;;;;;;;0.60;0.60;;;;;;;21.32;30.09;100206.41;4571167;27;20159;-58
2023/04/02 02:52:07;;;;;;;0.70;0.70;;;;;;;21.31;30.15;100213.34;4579682;27;20028;-58
2023/04/02 02:54:29;;;;;;;0.98;0.80;;;;;;;21.30;29.57;100217.44;4572053;27;20036;-58
2023/04/02 02:56:46;;;;;;;0.70;0.70;;;;;;;21.28;29.70;100216.97;4573306;27;20035;-58
2023/04/02 02:58:59;;;;;;;0.70;0.70;;;;;;;21.28;29.55;100216.16;4560694;27;20137;-58
2023/04/02 03:01:15;;;;;;;0.60;0.60;;;;;;;21.24;29.63;100224.69;4568450;27;20036;-58
2023/04/02 03:03:31;;;;;;;0.73;0.73;;;;;;;21.14;29.41;100210.97;4572145;27;20036;-58
2023/04/02 03:05:52;;;;;;;0.80;0.70;;;;;;;21.29;29.65;100235.88;4571119;27;20028;-58
2023/04/02 03:08:10;;;;;;;1.02;0.80;;;;;;;21.27;29.28;100238.28;4570978;27;20177;-58
2023/04/02 03:10:56;;;;;;;0.80;0.80;;;;;;;21.29;29.09;100243.66;4569809;27;20104;-58
2023/04/02 03:13:20;;;;;;;0.95;0.80;;;;;;;21.29;28.88;100247.34;4544457;28;20044;-57
2023/04/02 03:15:37;;;;;;;1.00;0.80;;;;;;;21.29;29.31;100258.00;4554070;27;20082;-57
2023/04/02 03:17:55;;;;;;;1.00;0.90;;;;;;;21.28;29.17;100262.91;4571979;27;20036;-57
2023/04/02 03:20:24;;;;;;;0.98;0.90;;;;;;;21.28;28.97;100262.91;4571298;27;20032;-58
2023/04/02 03:22:41;;;;;;;0.70;0.70;;;;;;;21.24;29.29;100264.88;4570305;27;20040;-58
2023/04/02 03:24:58;;;;;;;;;;;;;;;21.29;29.21;100278.09;4570520;27;20040;-57
2023/04/02 03:27:16;;;;;;;1.05;0.90;;;;;;;21.26;28.71;100282.56;4570513;27;20588;-58
2023/04/02 03:29:35;;;;;;;0.82;0.80;;;;;;;21.27;28.97;100289.97;4569689;27;20031;-58
2023/04/02 03:31:50;;;;;;;1.00;0.90;;;;;;;21.28;28.74;100285.88;4589098;27;20035;-58
2023/04/02 03:34:10;;;;;;;0.73;0.73;;;;;;;21.28;29.02;100297.34;4587220;27;20226;-58
2023/04/02 03:36:29;;;;;;;0.77;0.77;;;;;;;21.23;29.03;100297.66;4572086;27;20032;-58
2023/04/02 03:38:45;;;;;;;1.00;0.90;;;;;;;21.27;28.62;100306.34;4571978;27;20044;-58
2023/04/02 03:41:30;;;;;;;0.77;0.77;;;;;;;21.27;28.70;100312.09;4569233;27;20133;-58
2023/04/02 03:43:56;;;;;;;1.02;0.73;;;;;;;21.25;28.91;100315.34;4570491;27;20607;-58
2023/04/02 03:46:30;;;;;;;0.70;0.70;;;;;;;21.27;29.06;100320.69;4569937;27;20032;-58
2023/04/02 03:48:47;;;;;;;1.00;0.90;;;;;;;21.26;28.79;100334.22;4559823;28;20036;-58
2023/04/02 03:51:22;;;;;;;0.70;0.70;;;;;;;21.24;28.72;100330.91;4561311;27;20033;-58
2023/04/02 03:53:33;;;;;;;1.00;0.90;;;;;;;21.23;29.22;100328.41;4570615;27;20036;-60
2023/04/02 03:55:44;;;;;;;1.05;0.95;;;;;;;21.23;28.60;100334.97;4571496;27;20028;-57
2023/04/02 03:58:20;;;;;;;1.00;0.90;;;;;;;21.25;28.76;100348.97;4572157;27;20035;-58
2023/04/02 04:00:46;;;;;;;0.70;0.70;;;;;;;21.25;29.03;100348.97;4587037;27;20051;-58
2023/04/02 04:03:04;;;;;;;0.93;0.80;;;;;;;21.18;28.71;100334.44;4560280;27;20686;-58
2023/04/02 04:05:23;;;;;;;0.80;0.80;;;;;;;21.24;29.27;100353.88;4569251;27;20032;-59
2023/04/02 04:07:40;;;;;;;0.80;0.80;;;;;;;21.27;29.37;100363.75;4587345;27;20028;-59
2023/04/02 04:09:52;;;;;;;0.70;0.70;;;;;;;21.24;29.28;100359.59;4586780;27;20025;-57
2023/04/02 04:12:27;;;;;;;1.02;0.90;;;;;;;21.28;29.08;100380.59;4571751;27;20064;-57
2023/04/02 04:14:45;;;;;;;0.82;0.82;;;;;;;21.17;28.92;100365.19;4559356;28;20545;-58
2023/04/02 04:17:08;;;;;;;0.82;0.80;;;;;;;21.26;28.58;100383.03;4571053;27;20029;-57
2023/04/02 04:19:44;;;;;;;1.55;1.00;;;;;;;21.26;28.64;100391.66;4568931;27;20113;-58
2023/04/02 04:22:10;;;;;;;1.23;1.00;;;;;;;21.23;28.46;100383.75;4576266;27;20756;-57
2023/04/02 04:24:24;;;;;;;0.80;0.80;;;;;;;21.26;28.76;100396.53;4571144;27;20039;-58
2023/04/02 04:26:55;;;;;;;0.90;0.80;;;;;;;21.24;28.50;100399.78;4568508;27;20028;-58
2023/04/02 04:29:32;;;;;;;1.00;0.82;;;;;;;21.24;28.67;100414.16;4586387;27;21340;-58
2023/04/02 04:31:48;;;;;;;1.17;0.88;;;;;;;21.26;28.41;100419.50;4567085;27;20909;-58
2023/04/02 04:34:10;;;;;;;1.23;0.90;;;;;;;21.21;28.73;100414.91;4567966;27;20040;-58
2023/04/02 04:36:28;;;;;;;1.10;1.00;;;;;;;21.24;28.27;100428.50;4577038;27;20055;-58
2023/04/02 04:38:54;;;;;;;0.80;0.80;;;;;;;21.23;28.18;100426.00;4569627;27;20033;-58
2023/04/02 04:41:21;;;;;;;0.90;0.90;;;;;;;21.25;28.36;100435.09;4576029;27;20576;-57
2023/04/02 04:44:01;;;;;;;1.00;0.90;;;;;;;21.22;28.35;100439.53;4586298;27;20050;-58
2023/04/02 04:46:29;;;;;;;0.93;0.82;;;;;;;21.23;28.18;100448.97;4561525;27;20789;-58
2023/04/02 04:49:03;;;;;;;1.20;1.00;;;;;;;21.23;27.73;100457.59;4575930;27;20036;-58
2023/04/02 04:51:30;;;;;;;1.00;0.90;;;;;;;21.23;28.05;100466.19;4568427;27;20609;-58
2023/04/02 04:53:47;;;;;;;1.10;0.90;;;;;;;21.23;27.74;100477.69;4570913;27;20651;-58
2023/04/02 04:56:02;;;;;;;0.80;0.80;;;;;;;21.17;28.05;100462.78;4586524;27;20073;-58
2023/04/02 04:58:24;;;;;;;0.93;0.93;;;;;;;21.07;27.70;100451.88;4574671;27;20623;-58
2023/04/02 05:01:02;;;;;;;1.52;1.00;;;;;;;21.22;27.84;100479.69;4568885;27;20035;-57
2023/04/02 05:03:25;;;;;;;1.10;0.93;;;;;;;21.21;27.59;100492.41;4568116;27;20044;-57
2023/04/02 05:05:39;;;;;;;0.95;0.95;;;;;;;21.22;27.56;100493.22;4569052;27;20160;-58
2023/04/02 05:07:57;;;;;;;0.82;0.80;;;;;;;21.21;27.99;100500.16;4569750;27;21218;-57
2023/04/02 05:10:39;;;;;;;1.35;0.90;;;;;;;21.21;27.31;100498.16;4584002;27;20185;-58
2023/04/02 05:12:58;;;;;;;1.10;0.90;;;;;;;21.13;27.70;100504.91;4566485;27;20044;-58
2023/04/02 05:15:14;;;;;;;0.98;0.85;;;;;;;21.22;27.32;100519.03;4569048;27;20111;-58
2023/04/02 05:17:32;;;;;;;0.75;0.75;;;;;;;21.19;27.69;100523.50;4586370;27;20477;-58
2023/04/02 05:19:50;;;;;;;0.95;0.85;;;;;;;21.17;27.58;100525.09;4569785;27;20063;-58
2023/04/02 05:22:06;;;;;;;0.57;0.57;;;;;;;21.12;27.21;100516.78;4567912;27;20102;-58
2023/04/02 05:24:19;;;;;;;0.70;0.70;;;;;;;21.21;27.50;100535.47;4568578;27;20632;-58
2023/04/02 05:26:38;;;;;;;1.35;0.70;;;;;;;21.21;27.42;100543.22;4568996;27;20071;-58
2023/04/02 05:29:15;;;;;;;0.70;0.70;;;;;;;21.18;27.49;100550.56;4568467;27;20073;-58
2023/04/02 05:31:41;;;;;;;1.08;0.77;;;;;;;21.16;26.93;100552.13;4574969;27;20028;-57
2023/04/02 05:33:53;;;;;;;1.15;0.70;;;;;;;21.18;26.86;100558.31;4566593;27;20036;-58
2023/04/02 05:36:26;;;;;;;0.75;0.70;;;;;;;21.18;26.65;100567.78;4570350;27;20044;-56
2023/04/02 05:38:45;;;;;;;0.70;0.70;;;;;;;21.16;26.71;100566.47;4570803;27;20728;-56
2023/04/02 05:41:35;;;;;;;0.60;0.60;;;;;;;21.19;26.61;100580.91;4588500;27;20028;-58
2023/04/02 05:43:50;;;;;;;0.70;0.70;;;;;;;21.19;26.93;100585.81;4572484;27;20278;-57
2023/04/02 05:46:12;;;;;;;0.50;0.50;;;;;;;21.18;26.75;100589.91;4559865;27;20631;-57
2023/04/02 05:48:37;;;;;;;0.70;0.70;;;;;;;21.18;26.61;100593.63;4571951;27;20024;-57
2023/04/02 05:50:51;;;;;;;0.80;0.60;;;;;;;21.17;26.46;100594.00;4586155;27;20409;-57
2023/04/02 05:53:20;;;;;;;0.75;0.60;;;;;;;21.15;26.09;100605.84;4560315;27;20020;-57
2023/04/02 05:55:47;;;;;;;0.60;0.52;;;;;;;21.14;25.93;100607.03;4568983;27;20547;-57
2023/04/02 05:58:06;;;;;;;0.60;0.60;;;;;;;21.17;26.20;100623.50;4572630;27;20024;-57
2023/04/02 06:00:26;;;;;;;0.68;0.60;;;;;;;21.01;26.40;100602.56;4553749;27;20978;-57
2023/04/02 06:02:44;;;;;;;0.50;0.50;;;;;;;21.13;26.04;100622.59;4571529;27;20847;-57
2023/04/02 06:05:00;;;;;;;0.70;0.70;;;;;;;21.17;26.12;100631.31;4578004;27;20475;-57
2023/04/02 06:07:27;;;;;;;1.10;0.70;;;;;;;21.06;26.12;100616.66;4571795;27;20044;-57
2023/04/02 06:09:57;;;;;;;0.85;0.60;;;;;;;21.10;26.15;100629.06;4571096;27;20159;-57
2023/04/02 06:12:17;;;;;;;0.60;0.60;;;;;;;21.16;26.17;100647.69;4570076;27;20299;-57
2023/04/02 06:14:27;;;;;;;0.77;0.70;;;;;;;21.14;26.02;100655.81;4571856;27;20809;-57
2023/04/02 06:16:39;;;;;;;0.60;0.60;;;;;;;21.16;25.93;100664.06;4571653;27;20024;-58
2023/04/02 06:18:49;;;;;;;0.50;0.50;;;;;;;21.13;26.43;100659.91;4568642;27;21591;-57
2023/04/02 06:21:02;;;;;;;0.40;0.40;;;;;;;21.14;26.52;100670.16;4570350;27;20258;-57
2023/04/02 06:23:18;;;;;;;0.60;0.52;;;;;;;21.14;26.27;100678.78;4572433;27;20837;-57
2023/04/02 06:25:52;;;;;;;0.65;0.50;;;;;;;21.15;26.15;100691.09;4569466;27;20559;-57
2023/04/02 06:28:05;;;;;;;0.50;0.50;;;;;;;21.14;26.09;100690.25;4587356;27;20028;-57
2023/04/02 06:30:19;;;;;;;0.50;0.50;;;;;;;21.12;25.77;100692.66;4570440;27;20036;-57
2023/04/02 06:32:32;;;;;;;0.63;0.60;;;;;;;21.11;26.01;100693.88;4567659;27;20660;-57
2023/04/02 06:34:44;;;;;;;0.85;0.50;;;;;;;21.10;25.68;100691.38;4585586;27;20042;-56
2023/04/02 06:37:02;;;;;;;0.90;0.65;;;;;;;21.13;26.05;100700.09;4569636;27;20076;-57
2023/04/02 06:39:21;;;;;;;0.82;0.50;;;;;;;21.11;25.69;100711.09;4577371;27;20027;-57
2023/04/02 06:41:32;;;;;;;0.60;0.50;;;;;;;21.13;25.84;100713.59;4558492;28;20638;-56
2023/04/02 06:44:19;;;;;;;0.60;0.60;;;;;;;21.11;26.02;100713.13;4527076;27;20032;-57
2023/04/02 06:46:59;;;;;;;0.47;0.47;;;;;;;21.14;25.97;100726.72;4541727;27;20047;-58
2023/04/02 06:49:21;;;;;;;0.50;0.50;;;;;;;21.13;25.74;100725.91;4571880;27;20035;-56
2023/04/02 06:51:36;;;;;;;0.55;0.50;;;;;;;21.11;25.80;100725.44;4568741;27;20077;-56
2023/04/02 06:53:49;;;;;;;0.50;0.50;;;;;;;21.12;25.99;100732.03;4588650;27;20032;-57
2023/04/02 06:56:09;;;;;;;0.60;0.50;;;;;;;21.12;25.85;100738.59;4576027;27;20716;-57
2023/04/02 06:58:20;;;;;;;0.47;0.40;;;;;;;21.10;26.13;100738.13;4569539;27;20035;-56
2023/04/02 07:00:40;;;;;;;0.55;0.50;;;;;;;21.11;25.93;100744.69;4571560;27;20028;-55
2023/04/02 07:02:54;;;;;;;0.60;0.60;;;;;;;21.06;25.80;100742.94;4577799;27;20032;-57
2023/04/02 07:05:10;;;;;;;0.70;0.50;;;;;;;21.09;26.01;100765.16;4571616;27;20031;-58
2023/04/02 07:07:26;;;;;;;0.77;0.50;;;;;;;21.09;25.72;100770.06;4577530;27;20031;-57
2023/04/02 07:09:36;;;;;;;0.57;0.57;;;;;;;21.08;25.65;100774.97;4570673;27;20118;-56
2023/04/02 07:11:48;;;;;;;0.98;0.60;;;;;;;21.08;25.60;100774.13;4570879;27;20035;-58
2023/04/02 07:14:01;;;;;;;0.60;0.60;;;;;;;21.05;25.56;100772.00;4589436;27;20606;-56
2023/04/02 07:16:24;;;;;;;0.70;0.52;;;;;;;21.09;25.48;100782.38;4572489;27;20039;-57
2023/04/02 07:18:35;;;;;;;0.73;0.52;;;;;;;21.07;25.87;100783.94;4570907;27;20040;-58
2023/04/02 07:20:49;;;;;;;0.80;0.60;;;;;;;21.11;26.11;100799.22;4572251;27;20136;-57
2023/04/02 07:23:00;;;;;;;0.45;0.43;;;;;;;21.10;26.00;100803.31;4572474;27;20047;-58
2023/04/02 07:25:11;;;;;;;0.50;0.45;;;;;;;21.10;25.58;100803.31;4571133;27;20039;-57
2023/04/02 07:27:21;;;;;;;0.73;0.55;;;;;;;21.09;25.72;100816.81;4586336;27;20364;-57
2023/04/02 07:29:32;;;;;;;0.60;0.60;;;;;;;21.07;25.48;100816.38;4586845;27;20441;-57
2023/04/02 07:31:43;;;;;;;0.50;0.50;;;;;;;21.05;25.16;100820.78;4571846;27;20036;-58
2023/04/02 07:33:58;;;;;;;0.55;0.50;;;;;;;21.06;25.51;100825.34;4568737;27;20032;-57
2023/04/02 07:36:13;;;;;;;0.60;0.50;;;;;;;21.05;25.28;100833.09;4553634;28;20029;-57
2023/04/02 07:38:24;;;;;;;0.50;0.47;;;;;;;21.08;25.56;100838.13;4569925;27;20036;-57
2023/04/02 07:40:35;;;;;;;0.57;0.52;;;;;;;21.07;25.72;100842.19;4572586;27;20036;-55
2023/04/02 07:42:45;;;;;;;0.52;0.50;;;;;;;21.09;25.07;100847.56;4569430;27;20067;-55
2023/04/02 07:44:56;;;;;;;0.80;0.50;;;;;;;21.05;25.33;100843.75;4570132;27;20438;-57
2023/04/02 07:47:07;;;;;;;1.05;0.70;;;;;;;21.02;25.33;100847.34;4569049;27;20432;-56
2023/04/02 07:49:18;;;;;;;0.55;0.55;;;;;;;21.02;24.95;100850.22;4571842;27;20079;-56
2023/04/02 07:51:28;;;;;;;0.50;0.50;;;;;;;21.07;24.91;100861.44;4569004;27;20032;-58
2023/04/02 07:53:40;;;;;;;0.60;0.60;;;;;;;21.08;24.99;100860.22;4570336;27;20032;-59
2023/04/02 07:55:51;;;;;;;0.70;0.60;;;;;;;21.07;24.94;100879.50;4570766;27;20036;-57
2023/04/02 07:58:03;;;;;;;0.57;0.50;;;;;;;21.07;25.02;100873.75;4570730;27;20665;-62
2023/04/02 08:00:14;;;;;;;0.47;0.47;;;;;;;21.08;25.13;100878.28;4570588;27;20043;-57
2023/04/02 08:02:25;;;;;;;0.50;0.50;;;;;;;21.07;25.33;100876.63;4569102;27;20577;-58
2023/04/02 08:04:35;;;;;;;0.52;0.47;;;;;;;21.06;25.13;100874.94;4569811;27;20618;-57
2023/04/02 08:06:46;;;;;;;1.00;0.60;;;;;;;20.96;25.51;100869.75;4585909;27;20110;-58
2023/04/02 08:08:57;;;;;;;0.65;0.50;;;;;;;21.09;25.02;100897.19;4570140;27;20028;-57
2023/04/02 08:11:08;;;;;;;0.77;0.60;;;;;;;21.06;25.00;100886.44;4569608;27;20036;-56
2023/04/02 08:13:19;;;;;;;0.50;0.50;;;;;;;21.10;25.36;100892.28;4569803;27;20024;-56
2023/04/02 08:15:29;;;;;;;0.70;0.60;;;;;;;21.10;24.90;100898.88;4568809;27;20032;-56
2023/04/02 08:17:40;;;;;;;1.00;0.70;;;;;;;21.13;25.45;100908.78;4569691;27;20032;-56
2023/04/02 08:19:50;;;;;;;0.52;0.50;;;;;;;21.10;25.72;100901.75;4570537;27;20039;-58
2023/04/02 08:22:01;;;;;;;0.45;0.45;;;;;;;21.11;24.96;100922.63;4569837;27;20093;-56
2023/04/02 08:24:11;;;;;;;0.60;0.60;;;;;;;21.12;25.15;100930.06;4570866;27;20036;-56
2023/04/02 08:26:22;;;;;;;0.93;0.60;;;;;;;21.07;24.85;100921.72;4572217;27;20047;-57
2023/04/02 08:28:33;;;;;;;0.93;0.60;;;;;;;21.13;24.76;100938.31;4568547;27;20040;-56
2023/04/02 08:30:43;;;;;;;0.60;0.50;;;;;;;21.13;24.92;100941.19;4570158;27;20084;-56
2023/04/02 08:32:54;;;;;;;0.50;0.50;;;;;;;21.15;24.81;100943.69;4571649;27;20042;-57
2023/04/02 08:35:05;;;;;;;0.88;0.70;;;;;;;21.16;25.07;100957.69;4569856;27;20040;-56
2023/04/02 08:37:15;;;;;;;0.52;0.50;;;;;;;21.16;25.16;100954.81;4570129;27;20036;-56
2023/04/02 08:39:28;;;;;;;0.50;0.50;;;;;;;21.15;25.46;100950.28;4569530;27;20609;-56
2023/04/02 08:42:20;;;;;;;0.57;0.57;;;;;;;21.15;25.06;100961.75;4568857;27;20584;-57
2023/04/02 08:44:36;;;;;;;0.57;0.50;;;;;;;21.18;25.14;100969.66;4582288;27;20225;-57
2023/04/02 08:46:51;;;;;;;1.40;0.60;;;;;;;21.17;25.07;100967.97;4568562;27;20070;-56
2023/04/02 08:49:10;;;;;;;1.10;0.57;;;;;;;21.17;25.39;100970.00;4571573;27;20032;-56
2023/04/02 08:51:27;;;;;;;0.60;0.60;;;;;;;21.18;25.69;100972.53;4567509;27;20659;-56
2023/04/02 08:53:38;;;;;;;;;;;;;;;21.19;25.31;100982.78;4569818;27;20032;-56
2023/04/02 08:56:07;;;;;;;0.45;0.40;;;;;;;21.19;25.27;100988.53;4566305;27;19915;-58
2023/04/02 08:58:23;;;;;;;0.50;0.50;;;;;;;21.19;25.34;100981.94;4566393;27;20040;-56
2023/04/02 09:00:38;;;;;;;0.50;0.40;;;;;;;21.19;25.13;100991.41;4569744;27;20584;-56
2023/04/02 09:02:55;;;;;;;0.50;0.40;;;;;;;21.14;25.04;100987.94;4569539;27;20103;-56
2023/04/02 09:05:06;;;;;;;;;;;;;;;21.19;25.34;101005.75;4569568;27;20034;-56
2023/04/02 09:07:17;;;;;;;0.52;0.50;;;;;;;21.21;25.46;101009.13;4570272;27;19977;-57
2023/04/02 09:09:28;;;;;;;0.30;0.30;;;;;;;21.21;25.21;101003.38;4571445;27;20094;-56
2023/04/02 09:11:53;;;;;;;0.50;0.50;;;;;;;21.22;25.73;101010.78;4572094;27;20032;-56
2023/04/02 09:14:13;;;;;;;0.47;0.45;;;;;;;21.22;26.12;101010.78;4573501;27;20075;-56
2023/04/02 09:16:32;;;;;;;0.50;0.50;;;;;;;21.25;26.11;101012.09;4572540;27;20124;-56
2023/04/02 09:18:44;;;;;;;0.68;0.68;;;;;;;21.24;25.93;101010.41;4572941;27;20040;-56
2023/04/02 09:20:54;;;;;;;0.70;0.40;;;;;;;21.22;25.70;101012.78;4571636;27;20568;-56
2023/04/02 09:23:07;;;;;;;0.50;0.50;;;;;;;21.16;26.13;101009.34;4573152;27;20044;-56
2023/04/02 09:25:20;;;;;;;0.40;0.40;;;;;;;21.04;25.66;101000.75;4572208;27;20024;-56
2023/04/02 09:27:33;;;;;;;0.63;0.40;;;;;;;21.18;25.47;101026.22;4571476;27;20272;-56
2023/04/02 09:29:48;;;;;;;0.47;0.45;;;;;;;21.18;25.27;101032.81;4573602;27;20805;-57
2023/04/02 09:32:13;;;;;;;0.60;0.40;;;;;;;21.16;25.28;101037.22;4573171;27;20040;-57
2023/04/02 09:34:35;;;;;;;0.40;0.40;;;;;;;21.15;25.20;101039.28;4561118;28;20060;-57
2023/04/02 09:36:45;;;;;;;0.55;0.43;;;;;;;21.19;25.35;101048.81;4574540;27;20044;-56
2023/04/02 09:39:16;;;;;;;0.40;0.40;;;;;;;21.21;25.26;101049.31;4572412;27;20032;-57
2023/04/02 09:41:28;;;;;;;0.43;0.40;;;;;;;21.19;25.40;101040.22;4587917;27;20486;-57
2023/04/02 09:43:39;;;;;;;0.82;0.40;;;;;;;21.16;25.38;101046.66;4573909;27;20036;-57
2023/04/02 09:46:02;;;;;;;0.68;0.40;;;;;;;21.16;25.29;101049.53;4571189;27;20039;-57
2023/04/02 09:48:24;;;;;;;0.65;0.47;;;;;;;21.21;25.40;101071.44;4571474;27;20129;-56
2023/04/02 09:50:35;;;;;;;0.40;0.40;;;;;;;21.20;25.65;101061.97;4561828;27;20167;-56
2023/04/02 09:52:47;;;;;;;0.45;0.40;;;;;;;21.20;25.26;101069.75;4573640;27;20042;-56
2023/04/02 09:55:13;;;;;;;0.43;0.40;;;;;;;21.20;25.32;101082.06;4588541;27;20962;-56
2023/04/02 09:57:26;;;;;;;0.30;0.30;;;;;;;21.18;25.26;101089.38;4571312;27;20119;-57
2023/04/02 09:59:37;;;;;;;0.60;0.40;;;;;;;21.19;24.83;101091.88;4571496;27;20040;-56
2023/04/02 10:01:54;;;;;;;0.30;0.30;;;;;;;21.18;24.54;101075.00;4572599;27;20048;-58
2023/04/02 10:04:05;;;;;;;;;;;;;;;21.20;24.15;101084.94;4587982;27;20536;-57
2023/04/02 10:06:17;;;;;;;0.32;0.30;;;;;;;21.14;24.60;101089.25;4578267;27;20009;-56
2023/04/02 10:08:28;;;;;;;0.50;0.50;;;;;;;21.18;24.53;101095.97;4571205;27;20028;-57
2023/04/02 10:10:42;;;;;;;0.43;0.30;;;;;;;21.21;24.33;101103.00;4571580;27;20502;-56
2023/04/02 10:13:02;;;;;;;0.73;0.40;;;;;;;21.15;24.51;101090.09;4570850;27;20383;-56
2023/04/02 10:15:21;;;;;;;0.65;0.40;;;;;;;21.21;24.28;101105.88;4572924;27;20083;-56
2023/04/02 10:17:36;;;;;;;0.40;0.40;;;;;;;21.20;24.17;101105.03;4573235;27;20093;-56
2023/04/02 10:19:51;;;;;;;0.30;0.30;;;;;;;21.19;24.48;101108.25;4571485;27;20079;-56
2023/04/02 10:22:07;;;;;;;0.50;0.40;;;;;;;21.22;24.05;101119.88;4573431;27;20590;-57
2023/04/02 10:24:18;;;;;;;0.50;0.30;;;;;;;21.21;24.92;101123.94;4572152;27;20028;-57
2023/04/02 10:26:46;;;;;;;0.40;0.40;;;;;;;21.23;24.44;101121.53;4572318;27;20040;-56
2023/04/02 10:29:24;;;;;;;0.40;0.30;;;;;;;21.20;24.53;101125.13;4572548;27;20031;-56
2023/04/02 10:32:07;;;;;;;0.63;0.40;;;;;;;21.24;24.24;101140.44;4572987;27;20042;-57
2023/04/02 10:34:32;;;;;;;0.30;0.30;;;;;;;21.24;24.31;101140.44;4558064;27;20639;-56
2023/04/02 10:36:53;;;;;;;0.40;0.40;;;;;;;21.22;25.10;101144.84;4574114;27;20615;-57
2023/04/02 10:39:15;;;;;;;0.40;0.40;;;;;;;21.21;24.44;101144.03;4571200;27;20036;-56
2023/04/02 10:41:58;;;;;;;0.30;0.30;;;;;;;21.26;24.45;101152.41;4571569;27;21271;-57
2023/04/02 10:44:15;;;;;;;0.30;0.30;;;;;;;21.27;24.73;101156.09;4574124;27;20036;-56
2023/04/02 10:46:44;;;;;;;0.70;0.40;;;;;;;21.28;24.96;101160.69;4573183;27;20032;-58